createdAt,value
2017-01-02T00:00:30.094Z,0
2017-01-02T00:01:30.204Z,0
2017-01-02T00:02:30.009Z,0
2017-01-02T00:03:30.241Z,0
2017-01-02T00:04:30.350Z,0
2017-01-02T00:05:30.323Z,0
2017-01-02T00:06:30.288Z,0
2017-01-02T00:07:30.285Z,0
2017-01-02T00:08:30.340Z,0
2017-01-02T00:09:30.205Z,0
2017-01-02T00:10:30.198Z,0
2017-01-02T00:11:30.236Z,0
2017-01-02T00:12:30.257Z,0
2017-01-02T00:13:30.094Z,0
2017-01-02T00:14:30.219Z,0
2017-01-02T00:15:30.260Z,0
2017-01-02T00:16:30.347Z,0
2017-01-02T00:17:30.133Z,0
2017-01-02T00:18:30.345Z,0
2017-01-02T00:19:30.207Z,0
2017-01-02T00:20:30.043Z,0
2017-01-02T00:21:30.120Z,0
2017-01-02T00:22:30.216Z,0
2017-01-02T00:23:30.231Z,0
2017-01-02T00:24:30.060Z,0
2017-01-02T00:25:30.096Z,0
2017-01-02T00:26:30.356Z,0
2017-01-02T00:27:30.225Z,0
2017-01-02T00:28:30.068Z,0
2017-01-02T00:29:30.121Z,0
2017-01-02T00:30:30.415Z,0
2017-01-02T00:31:30.394Z,0
2017-01-02T00:32:30.675Z,0
2017-01-02T00:33:30.898Z,0
2017-01-02T00:34:30.109Z,0
2017-01-02T00:35:30.148Z,0
2017-01-02T00:36:30.183Z,0
2017-01-02T00:37:30.179Z,0
2017-01-02T00:38:29.946Z,0
2017-01-02T00:39:30.164Z,0
2017-01-02T00:40:30.285Z,0
2017-01-02T00:41:30.252Z,0
2017-01-02T00:42:30.126Z,0
2017-01-02T00:43:30.105Z,0
2017-01-02T00:44:30.290Z,0
2017-01-02T00:45:30.160Z,0
2017-01-02T00:46:30.228Z,0
2017-01-02T00:47:30.289Z,0
2017-01-02T00:48:30.283Z,0
2017-01-02T00:49:30.109Z,0
2017-01-02T00:50:30.210Z,0
2017-01-02T00:51:30.250Z,0
2017-01-02T00:52:30.343Z,0
2017-01-02T00:53:30.342Z,0
2017-01-02T00:54:29.985Z,0
2017-01-02T00:55:30.091Z,0
2017-01-02T00:56:30.309Z,0
2017-01-02T00:57:30.160Z,0
2017-01-02T00:58:30.076Z,0
2017-01-02T00:59:30.041Z,0
2017-01-02T01:00:30.132Z,0
2017-01-02T01:01:30.109Z,0
2017-01-02T01:02:30.210Z,0
2017-01-02T01:03:30.123Z,0
2017-01-02T01:04:29.956Z,0
2017-01-02T01:06:48.915Z,0
2017-01-02T01:07:48.913Z,0
2017-01-02T01:08:48.768Z,0
2017-01-02T01:09:48.841Z,0
2017-01-02T01:10:49.819Z,0
2017-01-02T01:11:48.888Z,0
2017-01-02T01:12:48.911Z,0
2017-01-02T01:13:48.755Z,0
2017-01-02T01:14:48.908Z,0
2017-01-02T01:15:48.776Z,0
2017-01-02T01:16:48.847Z,0
2017-01-02T01:17:48.849Z,0
2017-01-02T01:18:48.723Z,0
2017-01-02T01:19:48.811Z,0
2017-01-02T01:20:48.866Z,0
2017-01-02T01:21:48.779Z,0
2017-01-02T01:22:48.805Z,0
2017-01-02T01:23:48.766Z,0
2017-01-02T01:24:48.867Z,0
2017-01-02T01:25:50.058Z,0
2017-01-02T01:26:48.899Z,0
2017-01-02T01:27:48.961Z,0
2017-01-02T01:28:48.775Z,0
2017-01-02T01:29:48.934Z,0
2017-01-02T01:30:48.902Z,0
2017-01-02T01:31:48.875Z,0
2017-01-02T01:32:48.748Z,0
2017-01-02T01:33:48.984Z,0
2017-01-02T01:34:48.839Z,0
2017-01-02T01:35:48.863Z,0
2017-01-02T01:36:48.830Z,0
2017-01-02T01:37:48.795Z,0
2017-01-02T01:38:48.814Z,0
2017-01-02T01:39:49.028Z,0
2017-01-02T01:40:48.825Z,0
2017-01-02T01:41:48.776Z,0
2017-01-02T01:42:48.941Z,0
2017-01-02T01:43:48.785Z,0
2017-01-02T01:44:48.812Z,0
2017-01-02T01:45:48.922Z,0
2017-01-02T01:46:48.801Z,0
2017-01-02T01:47:48.855Z,0
2017-01-02T01:48:48.826Z,0
2017-01-02T01:49:48.937Z,0
2017-01-02T01:50:48.800Z,0
2017-01-02T01:51:48.806Z,0
2017-01-02T01:52:48.895Z,0
2017-01-02T01:53:48.799Z,0
2017-01-02T01:54:49.975Z,0
2017-01-02T01:55:49.027Z,0
2017-01-02T01:56:48.832Z,0
2017-01-02T01:57:48.860Z,0
2017-01-02T01:58:48.896Z,0
2017-01-02T01:59:48.936Z,0
2017-01-02T02:00:49.450Z,0
2017-01-02T02:01:49.158Z,0
2017-01-02T02:02:48.787Z,0
2017-01-02T02:03:48.753Z,0
2017-01-02T02:04:48.813Z,0
2017-01-02T02:05:48.889Z,0
2017-01-02T02:06:48.824Z,0
2017-01-02T02:07:48.850Z,0
2017-01-02T02:08:48.793Z,0
2017-01-02T02:09:48.844Z,0
2017-01-02T02:10:48.902Z,0
2017-01-02T02:11:48.842Z,0
2017-01-02T02:12:48.735Z,0
2017-01-02T02:13:48.953Z,0
2017-01-02T02:14:49.864Z,0
2017-01-02T02:15:48.741Z,0
2017-01-02T02:16:48.781Z,0
2017-01-02T02:17:48.934Z,0
2017-01-02T02:18:48.795Z,0
2017-01-02T02:19:48.978Z,0
2017-01-02T02:20:48.934Z,0
2017-01-02T02:21:48.888Z,0
2017-01-02T02:22:48.788Z,0
2017-01-02T02:23:48.931Z,0
2017-01-02T02:24:48.899Z,0
2017-01-02T02:25:48.780Z,0
2017-01-02T02:26:48.905Z,0
2017-01-02T02:27:48.831Z,0
2017-01-02T02:28:48.797Z,0
2017-01-02T02:29:48.894Z,0
2017-01-02T02:30:48.918Z,0
2017-01-02T02:31:48.871Z,0
2017-01-02T02:32:48.877Z,0
2017-01-02T02:33:48.943Z,0
2017-01-02T02:34:48.883Z,0
2017-01-02T02:35:48.911Z,0
2017-01-02T02:36:48.943Z,0
2017-01-02T02:37:48.842Z,0
2017-01-02T02:38:48.899Z,0
2017-01-02T02:39:48.861Z,0
2017-01-02T02:40:48.918Z,0
2017-01-02T02:41:48.929Z,0
2017-01-02T02:42:48.933Z,0
2017-01-02T02:43:48.868Z,0
2017-01-02T02:44:48.887Z,0
2017-01-02T02:45:48.954Z,0
2017-01-02T02:46:49.533Z,0
2017-01-02T02:47:48.901Z,0
2017-01-02T02:48:48.836Z,0
2017-01-02T02:49:48.902Z,0
2017-01-02T02:50:48.868Z,0
2017-01-02T02:51:49.115Z,0
2017-01-02T02:52:48.929Z,0
2017-01-02T02:53:48.901Z,0
2017-01-02T02:54:48.832Z,0
2017-01-02T02:55:51.886Z,0
2017-01-02T02:56:48.970Z,0
2017-01-02T02:57:48.810Z,0
2017-01-02T02:58:48.903Z,0
2017-01-02T02:59:49.091Z,0
2017-01-02T03:00:48.860Z,0
2017-01-02T03:01:48.877Z,0
2017-01-02T03:02:48.904Z,0
2017-01-02T03:03:48.983Z,0
2017-01-02T03:04:48.849Z,0
2017-01-02T03:05:48.932Z,0
2017-01-02T03:06:48.892Z,0
2017-01-02T03:07:49.045Z,0
2017-01-02T03:08:50.638Z,0
2017-01-02T03:09:48.903Z,0
2017-01-02T03:10:48.901Z,0
2017-01-02T03:11:49.022Z,0
2017-01-02T03:12:49.023Z,0
2017-01-02T03:13:48.916Z,0
2017-01-02T03:14:48.960Z,0
2017-01-02T03:15:49.071Z,0
2017-01-02T03:16:48.894Z,0
2017-01-02T03:17:49.085Z,0
2017-01-02T03:18:48.889Z,0
2017-01-02T03:19:49.000Z,0
2017-01-02T03:20:48.866Z,0
2017-01-02T03:21:49.047Z,0
2017-01-02T03:22:48.966Z,0
2017-01-02T03:23:48.912Z,0
2017-01-02T03:24:48.950Z,0
2017-01-02T03:25:48.943Z,0
2017-01-02T03:26:48.968Z,0
2017-01-02T03:27:48.913Z,0
2017-01-02T03:28:48.950Z,0
2017-01-02T03:29:49.016Z,0
2017-01-02T03:30:48.891Z,0
2017-01-02T03:31:48.963Z,0
2017-01-02T03:32:48.856Z,0
2017-01-02T03:33:48.897Z,0
2017-01-02T03:34:48.914Z,0
2017-01-02T03:35:48.958Z,0
2017-01-02T03:36:48.932Z,0
2017-01-02T03:37:49.030Z,0
2017-01-02T03:38:48.891Z,0
2017-01-02T03:39:49.054Z,0
2017-01-02T03:40:48.915Z,0
2017-01-02T03:41:48.931Z,0
2017-01-02T03:42:48.930Z,0
2017-01-02T03:43:49.109Z,0
2017-01-02T03:44:49.009Z,0
2017-01-02T03:45:49.109Z,0
2017-01-02T03:46:48.937Z,0
2017-01-02T03:47:48.944Z,0
2017-01-02T03:48:48.881Z,0
2017-01-02T03:49:49.165Z,0
2017-01-02T03:50:49.212Z,0
2017-01-02T03:51:49.010Z,0
2017-01-02T03:52:48.963Z,0
2017-01-02T03:53:48.946Z,0
2017-01-02T03:54:48.884Z,0
2017-01-02T03:55:49.098Z,0
2017-01-02T03:56:49.032Z,0
2017-01-02T03:57:48.877Z,0
2017-01-02T03:58:48.867Z,0
2017-01-02T03:59:49.075Z,0
2017-01-02T04:00:48.888Z,0
2017-01-02T04:01:48.958Z,0
2017-01-02T04:02:48.923Z,0
2017-01-02T04:03:48.906Z,0
2017-01-02T04:04:48.958Z,0
2017-01-02T04:05:49.007Z,0
2017-01-02T04:06:48.990Z,0
2017-01-02T04:07:48.988Z,0
2017-01-02T04:08:49.013Z,0
2017-01-02T04:09:49.016Z,0
2017-01-02T04:10:48.895Z,0
2017-01-02T04:11:51.892Z,0
2017-01-02T04:12:48.926Z,0
2017-01-02T04:13:48.983Z,0
2017-01-02T04:14:48.997Z,0
2017-01-02T04:15:48.944Z,0
2017-01-02T04:16:48.955Z,0
2017-01-02T04:17:48.995Z,0
2017-01-02T04:18:48.965Z,0
2017-01-02T04:19:48.998Z,0
2017-01-02T04:20:48.964Z,0
2017-01-02T04:21:49.125Z,0
2017-01-02T04:22:48.912Z,0
2017-01-02T04:23:49.018Z,0
2017-01-02T04:24:48.928Z,0
2017-01-02T04:25:49.148Z,0
2017-01-02T04:26:48.946Z,0
2017-01-02T04:27:49.036Z,0
2017-01-02T04:28:48.952Z,0
2017-01-02T04:29:49.089Z,0
2017-01-02T04:30:48.965Z,0
2017-01-02T04:31:48.952Z,0
2017-01-02T04:32:48.987Z,0
2017-01-02T04:33:48.994Z,0
2017-01-02T04:34:49.123Z,0
2017-01-02T04:35:48.950Z,0
2017-01-02T04:36:48.994Z,0
2017-01-02T04:37:58.966Z,0
2017-01-02T04:38:49.009Z,0
2017-01-02T04:39:48.938Z,0
2017-01-02T04:40:48.950Z,0
2017-01-02T04:41:49.075Z,0
2017-01-02T04:42:48.952Z,0
2017-01-02T04:43:49.093Z,0
2017-01-02T04:44:48.972Z,0
2017-01-02T04:45:48.907Z,0
2017-01-02T04:46:49.068Z,0
2017-01-02T04:47:49.050Z,0
2017-01-02T04:48:48.988Z,0
2017-01-02T04:49:48.937Z,0
2017-01-02T04:50:49.043Z,0
2017-01-02T04:51:49.059Z,0
2017-01-02T04:52:48.940Z,0
2017-01-02T04:53:49.093Z,0
2017-01-02T04:54:48.979Z,0
2017-01-02T04:55:48.940Z,0
2017-01-02T04:56:48.978Z,0
2017-01-02T04:57:48.901Z,0
2017-01-02T04:58:48.967Z,0
2017-01-02T04:59:48.940Z,0
2017-01-02T05:00:49.033Z,0
2017-01-02T05:01:49.061Z,0
2017-01-02T05:02:49.011Z,0
2017-01-02T05:03:49.130Z,0
2017-01-02T05:04:49.039Z,0
2017-01-02T05:05:49.240Z,0
2017-01-02T05:06:49.099Z,0
2017-01-02T05:07:49.208Z,0
2017-01-02T05:08:49.044Z,0
2017-01-02T05:09:49.121Z,0
2017-01-02T05:10:49.022Z,0
2017-01-02T05:11:49.030Z,0
2017-01-02T05:12:49.062Z,0
2017-01-02T05:13:49.059Z,0
2017-01-02T05:14:48.960Z,0
2017-01-02T05:15:49.050Z,0
2017-01-02T05:16:49.007Z,0
2017-01-02T05:17:49.162Z,0
2017-01-02T05:18:48.982Z,0
2017-01-02T05:19:49.164Z,0
2017-01-02T05:20:49.528Z,0
2017-01-02T05:21:49.208Z,0
2017-01-02T05:22:48.986Z,0
2017-01-02T05:27:18.716Z,0
2017-01-02T05:28:18.498Z,0
2017-01-02T05:29:18.609Z,0
2017-01-02T05:30:18.620Z,0
2017-01-02T05:31:18.536Z,0
2017-01-02T05:32:18.513Z,0
2017-01-02T05:33:19.569Z,0
2017-01-02T05:34:18.539Z,0
2017-01-02T05:35:21.542Z,0
2017-01-02T05:36:18.623Z,0
2017-01-02T05:37:18.723Z,0
2017-01-02T05:38:18.672Z,0
2017-01-02T05:39:18.588Z,0
2017-01-02T05:40:18.517Z,0
2017-01-02T05:41:18.528Z,0
2017-01-02T05:42:18.731Z,0
2017-01-02T05:43:18.647Z,0
2017-01-02T05:44:18.510Z,0
2017-01-02T05:45:18.557Z,0
2017-01-02T05:46:18.507Z,0
2017-01-02T05:47:18.613Z,0
2017-01-02T05:48:18.737Z,0
2017-01-02T05:49:18.573Z,0
2017-01-02T05:50:18.517Z,0
2017-01-02T05:51:18.604Z,0
2017-01-02T05:52:18.562Z,0
2017-01-02T05:53:20.243Z,0
2017-01-02T05:54:18.694Z,0
2017-01-02T05:55:18.617Z,0
2017-01-02T05:56:18.477Z,0
2017-01-02T05:57:18.551Z,0
2017-01-02T05:58:18.541Z,0
2017-01-02T05:59:18.706Z,0
2017-01-02T06:00:19.767Z,0
2017-01-02T06:01:18.715Z,0
2017-01-02T06:02:18.607Z,0
2017-01-02T06:03:18.611Z,0
2017-01-02T06:04:18.700Z,0
2017-01-02T06:05:18.678Z,0
2017-01-02T06:06:18.739Z,0
2017-01-02T06:07:20.014Z,0
2017-01-02T06:08:18.706Z,0
2017-01-02T06:09:18.616Z,0
2017-01-02T06:10:18.536Z,0
2017-01-02T06:11:18.598Z,0
2017-01-02T06:12:18.756Z,0
2017-01-02T06:13:18.759Z,0
2017-01-02T06:14:18.514Z,0
2017-01-02T06:15:18.608Z,0
2017-01-02T06:16:18.740Z,0
2017-01-02T06:17:18.652Z,0
2017-01-02T06:18:18.694Z,0
2017-01-02T06:19:18.675Z,0
2017-01-02T06:20:18.775Z,0
2017-01-02T06:21:18.567Z,0
2017-01-02T06:22:19.233Z,0
2017-01-02T06:23:18.686Z,0
2017-01-02T06:24:18.629Z,0
2017-01-02T06:25:18.694Z,0
2017-01-02T06:26:18.764Z,0
2017-01-02T06:27:18.612Z,0
2017-01-02T06:28:18.770Z,0
2017-01-02T06:29:18.662Z,0
2017-01-02T06:30:18.769Z,0
2017-01-02T06:31:18.556Z,0
2017-01-02T06:32:18.713Z,0
2017-01-02T06:33:18.676Z,0
2017-01-02T06:34:18.595Z,0
2017-01-02T06:35:18.601Z,0
2017-01-02T06:36:18.596Z,0
2017-01-02T06:37:18.793Z,0
2017-01-02T06:38:18.734Z,0
2017-01-02T06:39:18.630Z,0
2017-01-02T06:40:18.664Z,0
2017-01-02T06:41:18.612Z,0
2017-01-02T06:42:18.715Z,0
2017-01-02T06:43:18.683Z,0
2017-01-02T06:44:18.700Z,0
2017-01-02T06:45:18.735Z,0
2017-01-02T06:46:18.572Z,0
2017-01-02T06:47:18.835Z,0
2017-01-02T06:48:18.601Z,0
2017-01-02T06:49:18.746Z,0
2017-01-02T06:50:18.820Z,0
2017-01-02T06:51:18.691Z,0
2017-01-02T06:52:18.732Z,0
2017-01-02T06:53:18.844Z,0
2017-01-02T06:54:18.627Z,0
2017-01-02T06:55:18.662Z,0
2017-01-02T06:56:18.601Z,0
2017-01-02T06:57:18.773Z,0
2017-01-02T06:58:18.658Z,0
2017-01-02T06:59:18.596Z,0
2017-01-02T07:00:18.850Z,0
2017-01-02T07:01:18.745Z,0
2017-01-02T07:02:18.720Z,0
2017-01-02T07:03:18.608Z,0
2017-01-02T07:04:18.591Z,0
2017-01-02T07:05:18.600Z,4
2017-01-02T07:06:18.611Z,4
2017-01-02T07:07:18.650Z,4
2017-01-02T07:08:18.714Z,4
2017-01-02T07:09:18.757Z,4
2017-01-02T07:10:18.717Z,4
2017-01-02T07:11:18.753Z,4
2017-01-02T07:12:18.599Z,4
2017-01-02T07:13:18.731Z,8
2017-01-02T07:14:18.797Z,4
2017-01-02T07:15:18.714Z,8
2017-01-02T07:16:18.666Z,8
2017-01-02T07:17:18.729Z,8
2017-01-02T07:18:18.708Z,12
2017-01-02T07:19:18.711Z,12
2017-01-02T07:20:18.712Z,16
2017-01-02T07:21:19.107Z,20
2017-01-02T07:22:18.799Z,24
2017-01-02T07:23:18.641Z,24
2017-01-02T07:24:18.730Z,20
2017-01-02T07:25:18.748Z,28
2017-01-02T07:26:18.701Z,32
2017-01-02T07:27:18.862Z,36
2017-01-02T07:28:18.652Z,44
2017-01-02T07:29:18.653Z,52
2017-01-02T07:30:18.795Z,60
2017-01-02T07:31:18.609Z,60
2017-01-02T07:32:18.778Z,64
2017-01-02T07:33:18.779Z,80
2017-01-02T07:34:18.779Z,96
2017-01-02T07:35:18.727Z,104
2017-01-02T07:36:19.293Z,96
2017-01-02T07:37:18.667Z,92
2017-01-02T07:38:18.730Z,100
2017-01-02T07:39:18.827Z,104
2017-01-02T07:40:18.736Z,104
2017-01-02T07:41:18.679Z,108
2017-01-02T07:42:18.827Z,120
2017-01-02T07:43:18.754Z,148
2017-01-02T07:44:18.933Z,160
2017-01-02T07:45:18.791Z,200
2017-01-02T07:46:18.635Z,184
2017-01-02T07:47:18.847Z,172
2017-01-02T07:48:18.792Z,156
2017-01-02T07:49:18.679Z,152
2017-01-02T07:50:18.685Z,156
2017-01-02T07:51:18.849Z,172
2017-01-02T07:52:18.719Z,208
2017-01-02T07:53:18.635Z,228
2017-01-02T07:54:18.809Z,212
2017-01-02T07:55:18.781Z,248
2017-01-02T07:56:18.722Z,308
2017-01-02T07:57:18.871Z,368
2017-01-02T07:58:18.809Z,256
2017-01-02T07:59:18.929Z,256
2017-01-02T08:00:18.687Z,284
2017-01-02T08:01:18.982Z,344
2017-01-02T08:02:18.956Z,376
2017-01-02T08:03:18.768Z,384
2017-01-02T08:04:18.913Z,408
2017-01-02T08:05:18.816Z,348
2017-01-02T08:06:18.728Z,352
2017-01-02T08:07:19.078Z,368
2017-01-02T08:08:18.852Z,408
2017-01-02T08:09:19.064Z,416
2017-01-02T08:10:18.932Z,428
2017-01-02T08:11:19.166Z,520
2017-01-02T08:12:18.840Z,504
2017-01-02T08:13:18.935Z,492
2017-01-02T08:14:18.933Z,472
2017-01-02T08:15:18.790Z,544
2017-01-02T08:16:18.810Z,656
2017-01-02T08:17:18.911Z,764
2017-01-02T08:18:18.736Z,616
2017-01-02T08:19:18.855Z,628
2017-01-02T08:20:18.655Z,624
2017-01-02T08:21:18.890Z,636
2017-01-02T08:22:19.027Z,668
2017-01-02T08:23:18.814Z,816
2017-01-02T08:24:18.695Z,872
2017-01-02T08:25:18.840Z,956
2017-01-02T08:26:18.862Z,848
2017-01-02T08:27:18.870Z,856
2017-01-02T08:28:18.872Z,820
2017-01-02T08:29:18.736Z,944
2017-01-02T08:30:18.953Z,1136
2017-01-02T08:31:18.956Z,964
2017-01-02T08:32:19.107Z,1008
2017-01-02T08:33:18.878Z,1016
2017-01-02T08:34:18.816Z,1212
2017-01-02T08:35:18.817Z,1224
2017-01-02T08:36:19.006Z,1364
2017-01-02T08:37:19.010Z,1076
2017-01-02T08:38:18.867Z,1064
2017-01-02T08:39:18.836Z,1080
2017-01-02T08:40:18.756Z,1188
2017-01-02T08:41:18.847Z,1348
2017-01-02T08:42:18.902Z,1780
2017-01-02T08:43:18.796Z,2604
2017-01-02T08:44:18.906Z,1980
2017-01-02T08:45:18.882Z,1544
2017-01-02T08:46:18.757Z,1496
2017-01-02T08:47:18.848Z,1592
2017-01-02T08:48:18.819Z,1400
2017-01-02T08:49:19.573Z,1564
2017-01-02T08:50:18.747Z,2160
2017-01-02T08:51:18.808Z,1564
2017-01-02T08:52:18.973Z,1940
2017-01-02T08:53:18.923Z,1564
2017-01-02T08:54:19.076Z,1668
2017-01-02T08:55:18.793Z,1636
2017-01-02T08:56:18.894Z,1864
2017-01-02T08:57:18.844Z,4472
2017-01-02T08:58:18.733Z,2980
2017-01-02T08:59:18.892Z,1844
2017-01-02T09:00:18.745Z,1628
2017-01-02T09:01:18.846Z,1952
2017-01-02T09:02:18.883Z,2552
2017-01-02T09:03:18.855Z,2100
2017-01-02T09:04:18.796Z,2504
2017-01-02T09:05:19.009Z,2488
2017-01-02T09:06:18.885Z,2192
2017-01-02T09:07:19.034Z,2148
2017-01-02T09:08:18.833Z,2332
2017-01-02T09:09:22.344Z,2136
2017-01-02T09:10:18.985Z,2268
2017-01-02T09:11:18.935Z,2784
2017-01-02T09:12:18.990Z,3268
2017-01-02T09:13:18.799Z,3220
2017-01-02T09:14:19.024Z,2804
2017-01-02T09:15:18.880Z,2980
2017-01-02T09:16:18.926Z,3180
2017-01-02T09:17:18.920Z,4120
2017-01-02T09:18:18.935Z,5508
2017-01-02T09:19:18.947Z,4748
2017-01-02T09:20:18.855Z,5012
2017-01-02T09:21:19.399Z,4032
2017-01-02T09:22:19.044Z,3696
2017-01-02T09:23:20.865Z,4340
2017-01-02T09:24:18.962Z,6316
2017-01-02T09:25:19.147Z,4928
2017-01-02T09:26:18.972Z,4340
2017-01-02T09:27:18.994Z,5072
2017-01-02T09:28:19.009Z,6764
2017-01-02T09:29:18.796Z,9632
2017-01-02T09:30:19.132Z,7116
2017-01-02T09:31:18.905Z,5304
2017-01-02T09:32:18.820Z,5516
2017-01-02T09:33:18.944Z,6440
2017-01-02T09:34:18.823Z,6104
2017-01-02T09:35:18.835Z,7484
2017-01-02T09:36:19.113Z,7760
2017-01-02T09:37:18.956Z,9428
2017-01-02T09:38:19.061Z,8944
2017-01-02T09:39:20.812Z,6844
2017-01-02T09:40:18.876Z,7056
2017-01-02T09:41:18.924Z,6140
2017-01-02T09:42:18.977Z,6416
2017-01-02T09:43:18.955Z,6152
2017-01-02T09:44:18.901Z,6688
2017-01-02T09:45:19.596Z,6620
2017-01-02T09:46:19.025Z,6308
2017-01-02T09:47:18.890Z,6224
2017-01-02T09:48:18.913Z,8192
2017-01-02T09:49:18.933Z,5984
2017-01-02T09:50:18.999Z,7608
2017-01-02T09:51:18.917Z,9616
2017-01-02T09:52:18.954Z,8140
2017-01-02T09:53:18.927Z,6180
2017-01-02T09:54:18.956Z,8340
2017-01-02T09:55:18.864Z,5660
2017-01-02T09:56:18.929Z,4848
2017-01-02T09:57:19.325Z,5804
2017-01-02T09:58:18.851Z,7316
2017-01-02T09:59:18.947Z,7492
2017-01-02T10:00:19.053Z,9172
2017-01-02T10:01:18.812Z,9388
2017-01-02T10:02:19.148Z,10036
2017-01-02T10:03:18.898Z,7996
2017-01-02T10:04:18.969Z,8836
2017-01-02T10:05:19.504Z,9128
2017-01-02T10:06:19.000Z,8824
2017-01-02T10:07:19.196Z,9564
2017-01-02T10:08:18.979Z,9220
2017-01-02T10:09:19.018Z,10068
2017-01-02T10:10:19.034Z,10120
2017-01-02T10:11:18.932Z,11096
2017-01-02T10:12:19.336Z,11248
2017-01-02T10:13:19.317Z,10340
2017-01-02T10:14:21.046Z,10308
2017-01-02T10:15:18.892Z,11032
2017-01-02T10:16:18.925Z,11276
2017-01-02T10:17:19.794Z,11096
2017-01-02T10:18:19.242Z,11120
2017-01-02T10:19:18.867Z,10396
2017-01-02T10:20:19.034Z,10052
2017-01-02T10:21:19.142Z,9536
2017-01-02T10:22:19.035Z,9260
2017-01-02T10:23:18.885Z,8756
2017-01-02T10:24:18.923Z,8716
2017-01-02T10:25:18.983Z,8628
2017-01-02T10:26:18.996Z,8344
2017-01-02T10:27:19.437Z,7996
2017-01-02T10:28:18.929Z,7896
2017-01-02T10:29:19.027Z,8020
2017-01-02T10:30:19.080Z,7888
2017-01-02T10:31:18.919Z,8000
2017-01-02T10:32:19.092Z,8144
2017-01-02T10:33:19.022Z,8432
2017-01-02T10:34:19.095Z,8684
2017-01-02T10:35:18.963Z,8912
2017-01-02T10:36:19.243Z,9112
2017-01-02T10:37:18.991Z,9332
2017-01-02T10:38:20.681Z,9520
2017-01-02T10:39:19.253Z,9668
2017-01-02T10:40:19.012Z,9688
2017-01-02T10:41:19.008Z,9684
2017-01-02T10:42:19.183Z,9552
2017-01-02T10:43:19.011Z,9172
2017-01-02T10:44:18.869Z,8524
2017-01-02T10:45:19.327Z,7884
2017-01-02T10:46:19.005Z,7592
2017-01-02T10:47:18.957Z,7464
2017-01-02T10:48:19.070Z,7352
2017-01-02T10:49:19.095Z,7580
2017-01-02T10:50:18.947Z,7924
2017-01-02T10:51:18.974Z,8160
2017-01-02T10:52:19.353Z,8400
2017-01-02T10:53:19.142Z,8608
2017-01-02T10:54:19.060Z,8704
2017-01-02T10:55:19.237Z,8336
2017-01-02T10:56:19.028Z,7804
2017-01-02T10:57:19.137Z,6964
2017-01-02T10:58:18.960Z,6104
2017-01-02T10:59:19.069Z,4996
2017-01-02T11:00:19.041Z,4172
2017-01-02T11:01:19.161Z,3732
2017-01-02T11:02:19.143Z,3580
2017-01-02T11:03:18.943Z,3244
2017-01-02T11:04:19.219Z,2956
2017-01-02T11:05:18.958Z,2744
2017-01-02T11:06:19.155Z,2764
2017-01-02T11:07:19.031Z,3240
2017-01-02T11:08:18.975Z,3456
2017-01-02T11:09:19.507Z,3448
2017-01-02T11:10:19.688Z,3400
2017-01-02T11:11:19.436Z,3352
2017-01-02T11:12:19.627Z,3272
2017-01-02T11:13:19.138Z,3204
2017-01-02T11:14:19.218Z,3204
2017-01-02T11:15:19.248Z,3276
2017-01-02T11:16:19.006Z,3548
2017-01-02T11:17:19.046Z,4496
2017-01-02T11:18:19.083Z,6264
2017-01-02T11:19:19.193Z,8024
2017-01-02T11:20:18.921Z,8920
2017-01-02T11:21:19.108Z,9076
2017-01-02T11:22:19.380Z,9428
2017-01-02T11:23:19.018Z,9640
2017-01-02T11:24:19.359Z,9676
2017-01-02T11:25:19.045Z,9748
2017-01-02T11:26:19.165Z,9592
2017-01-02T11:27:19.253Z,9360
2017-01-02T11:28:19.348Z,9628
2017-01-02T11:29:19.548Z,9760
2017-01-02T11:30:19.107Z,9936
2017-01-02T11:31:19.036Z,9796
2017-01-02T11:32:19.178Z,9540
2017-01-02T11:33:19.128Z,9552
2017-01-02T11:34:19.058Z,9544
2017-01-02T11:35:19.046Z,9668
2017-01-02T11:36:19.230Z,9512
2017-01-02T11:37:19.293Z,9272
2017-01-02T11:38:19.168Z,9116
2017-01-02T11:39:19.356Z,8948
2017-01-02T11:40:35.971Z,9148
2017-01-02T11:41:36.235Z,8984
2017-01-02T11:42:35.866Z,8908
2017-01-02T11:43:36.102Z,8872
2017-01-02T11:44:35.786Z,8836
2017-01-02T11:45:35.946Z,9060
2017-01-02T11:46:35.929Z,8972
2017-01-02T11:47:36.003Z,9020
2017-01-02T11:48:36.005Z,8952
2017-01-02T11:49:36.160Z,9212
2017-01-02T11:50:35.984Z,9068
2017-01-02T11:51:36.199Z,8932
2017-01-02T11:52:36.080Z,8796
2017-01-02T11:53:36.259Z,8800
2017-01-02T11:54:35.965Z,8708
2017-01-02T11:55:36.308Z,8900
2017-01-02T11:56:36.016Z,8924
2017-01-02T11:57:36.384Z,8852
2017-01-02T11:58:36.285Z,8964
2017-01-02T11:59:36.317Z,9116
2017-01-02T12:00:36.153Z,8868
2017-01-02T12:01:35.966Z,9100
2017-01-02T12:02:35.967Z,9380
2017-01-02T12:03:36.243Z,9384
2017-01-02T12:04:35.942Z,9204
2017-01-02T12:05:36.110Z,9196
2017-01-02T12:06:35.882Z,9032
2017-01-02T12:07:35.959Z,9132
2017-01-02T12:08:36.183Z,9256
2017-01-02T12:09:35.930Z,9268
2017-01-02T12:10:35.787Z,9272
2017-01-02T12:11:36.179Z,9228
2017-01-02T12:12:35.954Z,9096
2017-01-02T12:13:35.875Z,8776
2017-01-02T12:14:36.085Z,8780
2017-01-02T12:15:36.083Z,8792
2017-01-02T12:16:36.301Z,8788
2017-01-02T12:17:36.064Z,8804
2017-01-02T12:18:35.875Z,8916
2017-01-02T12:19:35.914Z,9496
2017-01-02T12:20:35.846Z,9796
2017-01-02T12:21:35.821Z,9112
2017-01-02T12:22:35.983Z,8600
2017-01-02T12:23:35.972Z,8856
2017-01-02T12:24:35.863Z,9048
2017-01-02T12:25:36.091Z,9172
2017-01-02T12:26:35.888Z,9296
2017-01-02T12:27:36.040Z,9144
2017-01-02T12:28:35.928Z,8988
2017-01-02T12:29:36.083Z,8836
2017-01-02T12:30:35.803Z,8552
2017-01-02T12:31:35.895Z,8372
2017-01-02T12:32:35.872Z,8236
2017-01-02T12:33:35.814Z,8200
2017-01-02T12:34:36.083Z,8160
2017-01-02T12:35:36.102Z,8092
2017-01-02T12:36:35.997Z,7932
2017-01-02T12:37:36.172Z,7708
2017-01-02T12:38:35.940Z,7780
2017-01-02T12:39:36.123Z,7652
2017-01-02T12:40:35.949Z,7616
2017-01-02T12:41:36.326Z,7516
2017-01-02T12:42:35.919Z,7344
2017-01-02T12:43:36.007Z,7204
2017-01-02T12:44:35.924Z,6964
2017-01-02T12:45:35.913Z,6744
2017-01-02T12:46:35.964Z,6700
2017-01-02T12:47:36.717Z,6592
2017-01-02T12:48:35.942Z,6564
2017-01-02T12:49:35.972Z,6524
2017-01-02T12:50:35.875Z,6528
2017-01-02T12:51:36.070Z,6492
2017-01-02T12:52:35.888Z,6448
2017-01-02T12:53:36.122Z,6436
2017-01-02T12:54:38.195Z,6452
2017-01-02T12:55:36.251Z,6396
2017-01-02T12:56:35.840Z,6384
2017-01-02T12:57:36.023Z,6304
2017-01-02T12:58:35.830Z,6292
2017-01-02T12:59:35.979Z,6248
2017-01-02T13:00:35.966Z,6168
2017-01-02T13:01:36.152Z,6072
2017-01-02T13:02:35.984Z,5976
2017-01-02T13:03:36.095Z,5940
2017-01-02T13:04:35.990Z,5960
2017-01-02T13:05:36.059Z,5940
2017-01-02T13:06:35.985Z,5896
2017-01-02T13:07:36.151Z,5884
2017-01-02T13:08:35.967Z,5824
2017-01-02T13:09:36.048Z,5792
2017-01-02T13:10:35.952Z,5824
2017-01-02T13:11:36.043Z,5776
2017-01-02T13:12:35.888Z,5740
2017-01-02T13:13:36.040Z,5668
2017-01-02T13:14:35.971Z,5712
2017-01-02T13:15:36.020Z,5744
2017-01-02T13:16:35.921Z,5800
2017-01-02T13:17:35.909Z,5860
2017-01-02T13:18:35.954Z,5940
2017-01-02T13:19:36.043Z,6004
2017-01-02T13:20:36.002Z,6016
2017-01-02T13:21:35.939Z,6080
2017-01-02T13:22:35.896Z,6140
2017-01-02T13:23:35.970Z,6112
2017-01-02T13:24:35.903Z,6092
2017-01-02T13:25:35.994Z,6040
2017-01-02T13:26:35.899Z,5972
2017-01-02T13:27:36.087Z,5904
2017-01-02T13:28:35.932Z,5820
2017-01-02T13:29:36.260Z,5720
2017-01-02T13:30:35.986Z,5584
2017-01-02T13:31:36.127Z,5536
2017-01-02T13:32:36.038Z,5528
2017-01-02T13:33:36.124Z,5512
2017-01-02T13:34:36.107Z,5476
2017-01-02T13:35:36.121Z,5508
2017-01-02T13:36:35.900Z,5520
2017-01-02T13:37:36.126Z,5540
2017-01-02T13:38:35.958Z,5544
2017-01-02T13:39:36.189Z,5552
2017-01-02T13:40:35.963Z,5484
2017-01-02T13:41:36.207Z,5396
2017-01-02T13:42:36.005Z,5368
2017-01-02T13:43:36.135Z,5296
2017-01-02T13:44:35.941Z,5184
2017-01-02T13:45:36.086Z,5084
2017-01-02T13:46:35.963Z,5012
2017-01-02T13:47:35.942Z,5000
2017-01-02T13:48:35.993Z,4992
2017-01-02T13:49:36.053Z,4984
2017-01-02T13:50:35.884Z,5052
2017-01-02T13:51:36.047Z,5144
2017-01-02T13:52:35.970Z,5192
2017-01-02T13:53:36.144Z,5220
2017-01-02T13:54:36.482Z,5264
2017-01-02T13:55:36.220Z,5280
2017-01-02T13:56:36.115Z,5332
2017-01-02T13:57:36.155Z,5460
2017-01-02T13:58:36.213Z,5668
2017-01-02T13:59:36.103Z,5904
2017-01-02T14:00:36.101Z,6128
2017-01-02T14:01:36.185Z,6352
2017-01-02T14:02:36.125Z,6572
2017-01-02T14:03:36.050Z,6780
2017-01-02T14:04:36.035Z,6964
2017-01-02T14:05:36.205Z,6988
2017-01-02T14:06:36.002Z,6928
2017-01-02T14:07:36.195Z,6876
2017-01-02T14:08:35.988Z,6940
2017-01-02T14:09:36.103Z,6840